sensor_id;sensor_type;location;lat;lon;timestamp;temperature;humidity
79030;DHT22;68511;51.146;7.012;2023-11-21T00:00:15;15.40;63.70
79030;DHT22;68511;51.146;7.012;2023-11-21T00:01:15;15.40;63.70
79030;DHT22;68511;51.146;7.012;2023-11-21T00:02:17;15.40;63.80
79030;DHT22;68511;51.146;7.012;2023-11-21T00:03:17;15.40;63.80
79030;DHT22;68511;51.146;7.012;2023-11-21T00:04:19;15.40;63.80
79030;DHT22;68511;51.146;7.012;2023-11-21T00:05:19;15.40;63.70
79030;DHT22;68511;51.146;7.012;2023-11-21T00:06:20;15.40;63.70
79030;DHT22;68511;51.146;7.012;2023-11-21T00:07:20;15.40;63.70
79030;DHT22;68511;51.146;7.012;2023-11-21T00:08:21;15.40;63.70
79030;DHT22;68511;51.146;7.012;2023-11-21T00:09:22;15.40;63.70
79030;DHT22;68511;51.146;7.012;2023-11-21T00:10:23;15.40;63.70
79030;DHT22;68511;51.146;7.012;2023-11-21T00:11:23;15.40;63.70
79030;DHT22;68511;51.146;7.012;2023-11-21T00:12:25;15.40;63.70
79030;DHT22;68511;51.146;7.012;2023-11-21T00:13:25;15.40;63.70
79030;DHT22;68511;51.146;7.012;2023-11-21T00:14:26;15.40;63.70
79030;DHT22;68511;51.146;7.012;2023-11-21T00:15:26;15.40;63.70
79030;DHT22;68511;51.146;7.012;2023-11-21T00:16:27;15.40;63.70
79030;DHT22;68511;51.146;7.012;2023-11-21T00:17:27;15.40;63.70
79030;DHT22;68511;51.146;7.012;2023-11-21T00:18:28;15.40;63.70
79030;DHT22;68511;51.146;7.012;2023-11-21T00:19:28;15.40;63.70
79030;DHT22;68511;51.146;7.012;2023-11-21T00:20:29;15.40;63.70
79030;DHT22;68511;51.146;7.012;2023-11-21T00:21:30;15.40;63.70
79030;DHT22;68511;51.146;7.012;2023-11-21T00:22:30;15.40;63.70
79030;DHT22;68511;51.146;7.012;2023-11-21T00:23:30;15.40;63.70
79030;DHT22;68511;51.146;7.012;2023-11-21T00:24:31;15.40;63.70
79030;DHT22;68511;51.146;7.012;2023-11-21T00:25:32;15.40;63.70
79030;DHT22;68511;51.146;7.012;2023-11-21T00:26:32;15.40;63.70
79030;DHT22;68511;51.146;7.012;2023-11-21T00:27:36;15.40;63.70
79030;DHT22;68511;51.146;7.012;2023-11-21T00:28:37;15.40;63.70
79030;DHT22;68511;51.146;7.012;2023-11-21T00:29:37;15.40;63.70
79030;DHT22;68511;51.146;7.012;2023-11-21T00:30:38;15.40;63.60
79030;DHT22;68511;51.146;7.012;2023-11-21T00:31:39;15.40;63.70
79030;DHT22;68511;51.146;7.012;2023-11-21T00:32:39;15.40;63.70
79030;DHT22;68511;51.146;7.012;2023-11-21T00:33:40;15.40;63.70
79030;DHT22;68511;51.146;7.012;2023-11-21T00:34:40;15.40;63.70
79030;DHT22;68511;51.146;7.012;2023-11-21T00:35:41;15.40;63.70
79030;DHT22;68511;51.146;7.012;2023-11-21T00:36:41;15.40;63.70
79030;DHT22;68511;51.146;7.012;2023-11-21T00:37:42;15.40;63.70
79030;DHT22;68511;51.146;7.012;2023-11-21T00:38:42;15.40;63.80
79030;DHT22;68511;51.146;7.012;2023-11-21T00:39:43;15.40;63.70
79030;DHT22;68511;51.146;7.012;2023-11-21T00:40:44;15.40;63.70
79030;DHT22;68511;51.146;7.012;2023-11-21T00:41:44;15.40;63.70
79030;DHT22;68511;51.146;7.012;2023-11-21T00:42:48;15.40;63.70
79030;DHT22;68511;51.146;7.012;2023-11-21T00:43:49;15.40;63.70
79030;DHT22;68511;51.146;7.012;2023-11-21T00:44:49;15.40;63.70
79030;DHT22;68511;51.146;7.012;2023-11-21T00:45:49;15.40;63.70
79030;DHT22;68511;51.146;7.012;2023-11-21T00:46:50;15.40;63.70
79030;DHT22;68511;51.146;7.012;2023-11-21T00:47:50;15.40;63.70
79030;DHT22;68511;51.146;7.012;2023-11-21T00:48:51;15.40;63.70
79030;DHT22;68511;51.146;7.012;2023-11-21T00:49:52;15.40;63.70
79030;DHT22;68511;51.146;7.012;2023-11-21T00:50:53;15.40;63.70
79030;DHT22;68511;51.146;7.012;2023-11-21T00:51:53;15.40;63.70
79030;DHT22;68511;51.146;7.012;2023-11-21T00:52:54;15.40;63.80
79030;DHT22;68511;51.146;7.012;2023-11-21T00:53:54;15.40;63.70
79030;DHT22;68511;51.146;7.012;2023-11-21T00:54:55;15.40;63.70
79030;DHT22;68511;51.146;7.012;2023-11-21T00:55:55;15.40;63.70
79030;DHT22;68511;51.146;7.012;2023-11-21T00:56:57;15.40;63.70
79030;DHT22;68511;51.146;7.012;2023-11-21T00:57:57;15.40;63.60
79030;DHT22;68511;51.146;7.012;2023-11-21T00:58:58;15.40;63.60
79030;DHT22;68511;51.146;7.012;2023-11-21T00:59:59;15.40;63.70
79030;DHT22;68511;51.146;7.012;2023-11-21T01:01:00;15.40;63.60
79030;DHT22;68511;51.146;7.012;2023-11-21T01:02:00;15.40;63.60
79030;DHT22;68511;51.146;7.012;2023-11-21T01:03:01;15.40;63.60
79030;DHT22;68511;51.146;7.012;2023-11-21T01:04:02;15.40;63.70
79030;DHT22;68511;51.146;7.012;2023-11-21T01:05:03;15.40;63.60
79030;DHT22;68511;51.146;7.012;2023-11-21T01:06:04;15.40;63.60
79030;DHT22;68511;51.146;7.012;2023-11-21T01:07:07;15.40;63.70
79030;DHT22;68511;51.146;7.012;2023-11-21T01:08:08;15.40;63.60
79030;DHT22;68511;51.146;7.012;2023-11-21T01:09:08;15.40;63.60
79030;DHT22;68511;51.146;7.012;2023-11-21T01:10:09;15.40;63.70
79030;DHT22;68511;51.146;7.012;2023-11-21T01:11:10;15.40;63.60
79030;DHT22;68511;51.146;7.012;2023-11-21T01:12:12;15.40;63.70
79030;DHT22;68511;51.146;7.012;2023-11-21T01:13:13;15.40;63.70
79030;DHT22;68511;51.146;7.012;2023-11-21T01:14:15;15.40;63.70
79030;DHT22;68511;51.146;7.012;2023-11-21T01:15:17;15.40;63.60
79030;DHT22;68511;51.146;7.012;2023-11-21T01:16:18;15.40;63.60
79030;DHT22;68511;51.146;7.012;2023-11-21T01:17:18;15.40;63.60
79030;DHT22;68511;51.146;7.012;2023-11-21T01:18:19;15.40;63.60
79030;DHT22;68511;51.146;7.012;2023-11-21T01:19:19;15.40;63.70
79030;DHT22;68511;51.146;7.012;2023-11-21T01:20:20;15.40;63.70
79030;DHT22;68511;51.146;7.012;2023-11-21T01:21:20;15.40;63.60
79030;DHT22;68511;51.146;7.012;2023-11-21T01:22:22;15.40;63.60
79030;DHT22;68511;51.146;7.012;2023-11-21T01:23:26;15.40;63.70
79030;DHT22;68511;51.146;7.012;2023-11-21T01:24:27;15.40;63.60
79030;DHT22;68511;51.146;7.012;2023-11-21T01:25:27;15.40;63.60
79030;DHT22;68511;51.146;7.012;2023-11-21T01:26:28;15.40;63.60
79030;DHT22;68511;51.146;7.012;2023-11-21T01:27:28;15.40;63.60
79030;DHT22;68511;51.146;7.012;2023-11-21T01:28:28;15.40;63.60
79030;DHT22;68511;51.146;7.012;2023-11-21T01:29:29;15.40;63.60
79030;DHT22;68511;51.146;7.012;2023-11-21T01:30:30;15.40;63.60
79030;DHT22;68511;51.146;7.012;2023-11-21T01:31:31;15.40;63.60
79030;DHT22;68511;51.146;7.012;2023-11-21T01:32:32;15.40;63.60
79030;DHT22;68511;51.146;7.012;2023-11-21T01:33:32;15.40;63.60
79030;DHT22;68511;51.146;7.012;2023-11-21T01:34:33;15.40;63.60
79030;DHT22;68511;51.146;7.012;2023-11-21T01:35:34;15.40;63.60
79030;DHT22;68511;51.146;7.012;2023-11-21T01:36:35;15.40;64.40
79030;DHT22;68511;51.146;7.012;2023-11-21T01:37:36;15.40;63.60
79030;DHT22;68511;51.146;7.012;2023-11-21T01:38:36;15.40;63.60
79030;DHT22;68511;51.146;7.012;2023-11-21T01:39:37;15.40;63.60
79030;DHT22;68511;51.146;7.012;2023-11-21T01:40:39;15.40;63.60
79030;DHT22;68511;51.146;7.012;2023-11-21T01:41:39;15.40;63.60
79030;DHT22;68511;51.146;7.012;2023-11-21T01:42:40;15.40;63.60
79030;DHT22;68511;51.146;7.012;2023-11-21T01:43:41;15.40;63.60
79030;DHT22;68511;51.146;7.012;2023-11-21T01:44:41;15.40;63.60
79030;DHT22;68511;51.146;7.012;2023-11-21T01:45:42;15.40;63.60
79030;DHT22;68511;51.146;7.012;2023-11-21T01:46:43;15.40;63.60
79030;DHT22;68511;51.146;7.012;2023-11-21T01:47:43;15.40;63.60
79030;DHT22;68511;51.146;7.012;2023-11-21T01:48:44;15.40;63.60
79030;DHT22;68511;51.146;7.012;2023-11-21T01:49:45;15.40;63.60
79030;DHT22;68511;51.146;7.012;2023-11-21T01:50:46;15.40;63.60
79030;DHT22;68511;51.146;7.012;2023-11-21T01:51:48;15.40;63.60
79030;DHT22;68511;51.146;7.012;2023-11-21T01:52:49;15.40;63.60
79030;DHT22;68511;51.146;7.012;2023-11-21T01:53:49;15.40;63.60
79030;DHT22;68511;51.146;7.012;2023-11-21T01:54:50;15.40;63.60
79030;DHT22;68511;51.146;7.012;2023-11-21T01:55:51;15.40;63.60
79030;DHT22;68511;51.146;7.012;2023-11-21T01:56:51;15.40;63.60
79030;DHT22;68511;51.146;7.012;2023-11-21T01:57:52;15.40;63.60
79030;DHT22;68511;51.146;7.012;2023-11-21T01:58:52;15.40;63.60
79030;DHT22;68511;51.146;7.012;2023-11-21T01:59:54;15.40;63.60
79030;DHT22;68511;51.146;7.012;2023-11-21T02:00:55;15.40;63.60
79030;DHT22;68511;51.146;7.012;2023-11-21T02:01:57;15.40;63.60
79030;DHT22;68511;51.146;7.012;2023-11-21T02:02:57;15.40;63.60
79030;DHT22;68511;51.146;7.012;2023-11-21T02:03:58;15.40;63.60
79030;DHT22;68511;51.146;7.012;2023-11-21T02:04:59;15.40;63.60
79030;DHT22;68511;51.146;7.012;2023-11-21T02:06:00;15.40;63.60
79030;DHT22;68511;51.146;7.012;2023-11-21T02:07:00;15.40;63.60
79030;DHT22;68511;51.146;7.012;2023-11-21T02:08:01;15.40;63.60
79030;DHT22;68511;51.146;7.012;2023-11-21T02:09:02;15.40;63.60
79030;DHT22;68511;51.146;7.012;2023-11-21T02:10:05;15.30;63.50
79030;DHT22;68511;51.146;7.012;2023-11-21T02:11:06;15.40;63.60
79030;DHT22;68511;51.146;7.012;2023-11-21T02:12:06;15.40;63.60
79030;DHT22;68511;51.146;7.012;2023-11-21T02:13:09;15.40;63.60
79030;DHT22;68511;51.146;7.012;2023-11-21T02:14:10;15.40;63.60
79030;DHT22;68511;51.146;7.012;2023-11-21T02:15:12;15.40;63.60
79030;DHT22;68511;51.146;7.012;2023-11-21T02:16:15;15.40;63.60
79030;DHT22;68511;51.146;7.012;2023-11-21T02:17:15;15.40;63.60
79030;DHT22;68511;51.146;7.012;2023-11-21T02:18:16;15.40;63.60
79030;DHT22;68511;51.146;7.012;2023-11-21T02:19:18;15.40;63.60
79030;DHT22;68511;51.146;7.012;2023-11-21T02:20:23;15.40;63.60
79030;DHT22;68511;51.146;7.012;2023-11-21T02:21:25;15.40;63.60
79030;DHT22;68511;51.146;7.012;2023-11-21T02:22:26;15.40;63.60
79030;DHT22;68511;51.146;7.012;2023-11-21T02:23:28;15.40;63.60
79030;DHT22;68511;51.146;7.012;2023-11-21T02:24:29;15.40;63.60
79030;DHT22;68511;51.146;7.012;2023-11-21T02:25:30;15.40;63.60
79030;DHT22;68511;51.146;7.012;2023-11-21T02:26:31;15.40;63.60
79030;DHT22;68511;51.146;7.012;2023-11-21T02:27:32;15.40;63.60
79030;DHT22;68511;51.146;7.012;2023-11-21T02:28:32;15.40;63.60
79030;DHT22;68511;51.146;7.012;2023-11-21T02:29:33;15.40;63.60
79030;DHT22;68511;51.146;7.012;2023-11-21T02:30:34;15.40;63.60
79030;DHT22;68511;51.146;7.012;2023-11-21T02:31:34;15.30;63.50
79030;DHT22;68511;51.146;7.012;2023-11-21T02:32:35;15.30;63.50
79030;DHT22;68511;51.146;7.012;2023-11-21T02:33:35;15.40;63.60
79030;DHT22;68511;51.146;7.012;2023-11-21T02:34:36;15.30;63.50
79030;DHT22;68511;51.146;7.012;2023-11-21T02:35:36;15.30;63.50
79030;DHT22;68511;51.146;7.012;2023-11-21T02:36:38;15.40;63.60
79030;DHT22;68511;51.146;7.012;2023-11-21T02:37:38;15.30;63.60
79030;DHT22;68511;51.146;7.012;2023-11-21T02:38:39;15.30;63.50
79030;DHT22;68511;51.146;7.012;2023-11-21T02:39:40;15.30;63.50
79030;DHT22;68511;51.146;7.012;2023-11-21T02:40:41;15.40;63.60
79030;DHT22;68511;51.146;7.012;2023-11-21T02:41:41;15.30;63.50
79030;DHT22;68511;51.146;7.012;2023-11-21T02:42:41;15.30;63.50
79030;DHT22;68511;51.146;7.012;2023-11-21T02:43:42;15.40;63.60
79030;DHT22;68511;51.146;7.012;2023-11-21T02:44:42;15.30;63.40
79030;DHT22;68511;51.146;7.012;2023-11-21T02:45:43;15.40;63.50
79030;DHT22;68511;51.146;7.012;2023-11-21T02:46:43;15.40;63.60
79030;DHT22;68511;51.146;7.012;2023-11-21T02:47:44;15.40;63.60
79030;DHT22;68511;51.146;7.012;2023-11-21T02:48:45;15.40;63.60
79030;DHT22;68511;51.146;7.012;2023-11-21T02:49:45;15.40;63.50
79030;DHT22;68511;51.146;7.012;2023-11-21T02:50:46;15.40;63.50
79030;DHT22;68511;51.146;7.012;2023-11-21T02:51:46;15.40;63.50
79030;DHT22;68511;51.146;7.012;2023-11-21T02:52:46;15.40;63.60
79030;DHT22;68511;51.146;7.012;2023-11-21T02:53:47;15.40;63.60
79030;DHT22;68511;51.146;7.012;2023-11-21T02:54:47;15.40;63.60
79030;DHT22;68511;51.146;7.012;2023-11-21T02:55:48;15.40;63.50
79030;DHT22;68511;51.146;7.012;2023-11-21T02:56:48;15.40;63.60
79030;DHT22;68511;51.146;7.012;2023-11-21T02:57:50;15.30;63.50
79030;DHT22;68511;51.146;7.012;2023-11-21T02:58:51;15.40;63.60
79030;DHT22;68511;51.146;7.012;2023-11-21T02:59:51;15.40;63.60
79030;DHT22;68511;51.146;7.012;2023-11-21T03:00:52;15.40;63.60
79030;DHT22;68511;51.146;7.012;2023-11-21T03:01:52;15.40;63.60
79030;DHT22;68511;51.146;7.012;2023-11-21T03:02:54;15.40;63.60
79030;DHT22;68511;51.146;7.012;2023-11-21T03:03:55;15.30;63.50
79030;DHT22;68511;51.146;7.012;2023-11-21T03:04:56;15.30;63.50
79030;DHT22;68511;51.146;7.012;2023-11-21T03:05:57;15.30;63.50
79030;DHT22;68511;51.146;7.012;2023-11-21T03:06:57;15.30;63.50
79030;DHT22;68511;51.146;7.012;2023-11-21T03:07:58;15.30;63.40
79030;DHT22;68511;51.146;7.012;2023-11-21T03:08:58;15.30;63.50
79030;DHT22;68511;51.146;7.012;2023-11-21T03:09:59;15.30;63.50
79030;DHT22;68511;51.146;7.012;2023-11-21T03:10:59;15.30;63.50
79030;DHT22;68511;51.146;7.012;2023-11-21T03:12:00;15.30;63.50
79030;DHT22;68511;51.146;7.012;2023-11-21T03:13:01;15.30;63.50
79030;DHT22;68511;51.146;7.012;2023-11-21T03:14:01;15.30;63.50
79030;DHT22;68511;51.146;7.012;2023-11-21T03:15:02;15.40;63.60
79030;DHT22;68511;51.146;7.012;2023-11-21T03:16:02;15.30;63.50
79030;DHT22;68511;51.146;7.012;2023-11-21T03:17:03;15.30;63.50
79030;DHT22;68511;51.146;7.012;2023-11-21T03:18:05;15.30;63.50
79030;DHT22;68511;51.146;7.012;2023-11-21T03:19:05;15.30;63.50
79030;DHT22;68511;51.146;7.012;2023-11-21T03:20:06;15.30;63.50
79030;DHT22;68511;51.146;7.012;2023-11-21T03:21:11;15.30;63.50
79030;DHT22;68511;51.146;7.012;2023-11-21T03:22:12;15.30;63.50
79030;DHT22;68511;51.146;7.012;2023-11-21T03:23:12;15.30;63.50
79030;DHT22;68511;51.146;7.012;2023-11-21T03:24:13;15.30;63.50
79030;DHT22;68511;51.146;7.012;2023-11-21T03:25:13;15.30;63.50
79030;DHT22;68511;51.146;7.012;2023-11-21T03:26:14;15.30;63.50
79030;DHT22;68511;51.146;7.012;2023-11-21T03:27:14;15.30;64.20
79030;DHT22;68511;51.146;7.012;2023-11-21T03:28:15;15.30;63.60
79030;DHT22;68511;51.146;7.012;2023-11-21T03:29:15;15.30;63.40
79030;DHT22;68511;51.146;7.012;2023-11-21T03:30:16;15.30;63.60
79030;DHT22;68511;51.146;7.012;2023-11-21T03:31:17;15.30;63.50
79030;DHT22;68511;51.146;7.012;2023-11-21T03:32:18;15.30;63.50
79030;DHT22;68511;51.146;7.012;2023-11-21T03:33:19;15.30;63.50
79030;DHT22;68511;51.146;7.012;2023-11-21T03:34:22;15.30;63.50
79030;DHT22;68511;51.146;7.012;2023-11-21T03:35:25;15.40;63.60
79030;DHT22;68511;51.146;7.012;2023-11-21T03:36:26;15.30;63.50
79030;DHT22;68511;51.146;7.012;2023-11-21T03:37:27;15.30;63.40
79030;DHT22;68511;51.146;7.012;2023-11-21T03:38:27;15.30;63.40
79030;DHT22;68511;51.146;7.012;2023-11-21T03:39:30;15.30;63.50
79030;DHT22;68511;51.146;7.012;2023-11-21T03:40:30;15.30;63.50
79030;DHT22;68511;51.146;7.012;2023-11-21T03:41:31;15.30;63.40
79030;DHT22;68511;51.146;7.012;2023-11-21T03:42:32;15.30;63.40
79030;DHT22;68511;51.146;7.012;2023-11-21T03:43:32;15.30;63.40
79030;DHT22;68511;51.146;7.012;2023-11-21T03:44:33;15.30;63.40
79030;DHT22;68511;51.146;7.012;2023-11-21T03:45:33;15.30;63.40
79030;DHT22;68511;51.146;7.012;2023-11-21T03:46:34;15.30;63.40
79030;DHT22;68511;51.146;7.012;2023-11-21T03:47:34;15.30;63.40
79030;DHT22;68511;51.146;7.012;2023-11-21T03:48:35;15.30;63.40
79030;DHT22;68511;51.146;7.012;2023-11-21T03:49:35;15.30;63.40
79030;DHT22;68511;51.146;7.012;2023-11-21T03:50:36;15.30;63.40
79030;DHT22;68511;51.146;7.012;2023-11-21T03:51:36;15.30;63.40
79030;DHT22;68511;51.146;7.012;2023-11-21T03:52:37;15.30;63.40
79030;DHT22;68511;51.146;7.012;2023-11-21T03:53:37;15.30;63.40
79030;DHT22;68511;51.146;7.012;2023-11-21T03:54:38;15.30;63.50
79030;DHT22;68511;51.146;7.012;2023-11-21T03:55:38;15.30;63.40
79030;DHT22;68511;51.146;7.012;2023-11-21T03:56:39;15.30;63.40
79030;DHT22;68511;51.146;7.012;2023-11-21T03:57:39;15.30;63.40
79030;DHT22;68511;51.146;7.012;2023-11-21T03:58:40;15.30;63.40
79030;DHT22;68511;51.146;7.012;2023-11-21T03:59:40;15.30;63.40
79030;DHT22;68511;51.146;7.012;2023-11-21T04:00:41;15.30;63.40
79030;DHT22;68511;51.146;7.012;2023-11-21T04:01:42;15.30;63.40
79030;DHT22;68511;51.146;7.012;2023-11-21T04:02:42;15.30;63.40
79030;DHT22;68511;51.146;7.012;2023-11-21T04:03:43;15.30;63.40
79030;DHT22;68511;51.146;7.012;2023-11-21T04:04:43;15.30;63.40
79030;DHT22;68511;51.146;7.012;2023-11-21T04:05:44;15.30;63.40
79030;DHT22;68511;51.146;7.012;2023-11-21T04:06:46;15.30;63.40
79030;DHT22;68511;51.146;7.012;2023-11-21T04:07:46;15.30;63.40
79030;DHT22;68511;51.146;7.012;2023-11-21T04:08:47;15.30;63.40
79030;DHT22;68511;51.146;7.012;2023-11-21T04:09:47;15.30;63.40
79030;DHT22;68511;51.146;7.012;2023-11-21T04:10:47;15.30;63.40
79030;DHT22;68511;51.146;7.012;2023-11-21T04:11:48;15.30;63.40
79030;DHT22;68511;51.146;7.012;2023-11-21T04:12:49;15.30;63.40
79030;DHT22;68511;51.146;7.012;2023-11-21T04:13:49;15.30;64.20
79030;DHT22;68511;51.146;7.012;2023-11-21T04:14:50;15.30;63.50
79030;DHT22;68511;51.146;7.012;2023-11-21T04:15:50;15.30;63.50
79030;DHT22;68511;51.146;7.012;2023-11-21T04:16:51;15.30;63.50
79030;DHT22;68511;51.146;7.012;2023-11-21T04:17:51;15.30;63.50
79030;DHT22;68511;51.146;7.012;2023-11-21T04:18:52;15.30;63.50
79030;DHT22;68511;51.146;7.012;2023-11-21T04:19:52;15.30;63.50
79030;DHT22;68511;51.146;7.012;2023-11-21T04:20:52;15.30;63.40
79030;DHT22;68511;51.146;7.012;2023-11-21T04:21:53;15.30;63.50
79030;DHT22;68511;51.146;7.012;2023-11-21T04:22:53;15.30;63.50
79030;DHT22;68511;51.146;7.012;2023-11-21T04:23:54;15.30;63.50
79030;DHT22;68511;51.146;7.012;2023-11-21T04:24:54;15.30;63.50
79030;DHT22;68511;51.146;7.012;2023-11-21T04:25:57;15.30;63.50
79030;DHT22;68511;51.146;7.012;2023-11-21T04:26:58;15.30;63.50
79030;DHT22;68511;51.146;7.012;2023-11-21T04:27:58;15.30;63.50
79030;DHT22;68511;51.146;7.012;2023-11-21T04:28:58;15.30;64.20
79030;DHT22;68511;51.146;7.012;2023-11-21T04:29:59;15.30;64.30
79030;DHT22;68511;51.146;7.012;2023-11-21T04:30:59;15.30;63.50
79030;DHT22;68511;51.146;7.012;2023-11-21T04:32:00;15.30;63.50
79030;DHT22;68511;51.146;7.012;2023-11-21T04:33:01;15.30;63.50
79030;DHT22;68511;51.146;7.012;2023-11-21T04:34:03;15.30;63.50
79030;DHT22;68511;51.146;7.012;2023-11-21T04:35:04;15.30;63.50
79030;DHT22;68511;51.146;7.012;2023-11-21T04:36:05;15.30;63.50
79030;DHT22;68511;51.146;7.012;2023-11-21T04:37:06;15.30;63.50
79030;DHT22;68511;51.146;7.012;2023-11-21T04:38:06;15.30;63.50
79030;DHT22;68511;51.146;7.012;2023-11-21T04:39:07;15.30;63.40
79030;DHT22;68511;51.146;7.012;2023-11-21T04:40:07;15.30;63.40
79030;DHT22;68511;51.146;7.012;2023-11-21T04:41:08;15.30;63.50
79030;DHT22;68511;51.146;7.012;2023-11-21T04:42:09;15.30;63.50
79030;DHT22;68511;51.146;7.012;2023-11-21T04:43:09;15.30;63.40
79030;DHT22;68511;51.146;7.012;2023-11-21T04:44:10;15.30;63.40
79030;DHT22;68511;51.146;7.012;2023-11-21T04:45:10;15.30;63.40
79030;DHT22;68511;51.146;7.012;2023-11-21T04:46:12;15.30;63.40
79030;DHT22;68511;51.146;7.012;2023-11-21T04:47:12;15.30;63.40
79030;DHT22;68511;51.146;7.012;2023-11-21T04:48:12;15.30;63.40
79030;DHT22;68511;51.146;7.012;2023-11-21T04:49:14;15.30;63.40
79030;DHT22;68511;51.146;7.012;2023-11-21T04:50:15;15.30;63.50
79030;DHT22;68511;51.146;7.012;2023-11-21T04:51:15;15.30;63.50
79030;DHT22;68511;51.146;7.012;2023-11-21T04:52:16;15.30;63.40
79030;DHT22;68511;51.146;7.012;2023-11-21T04:53:17;15.30;63.40
79030;DHT22;68511;51.146;7.012;2023-11-21T04:54:18;15.30;63.40
79030;DHT22;68511;51.146;7.012;2023-11-21T04:55:19;15.30;63.40
79030;DHT22;68511;51.146;7.012;2023-11-21T04:56:19;15.30;63.40
79030;DHT22;68511;51.146;7.012;2023-11-21T04:57:20;15.30;63.40
79030;DHT22;68511;51.146;7.012;2023-11-21T04:58:21;15.30;63.40
79030;DHT22;68511;51.146;7.012;2023-11-21T04:59:22;15.30;63.50
79030;DHT22;68511;51.146;7.012;2023-11-21T05:00:27;15.30;63.50
79030;DHT22;68511;51.146;7.012;2023-11-21T05:01:27;15.30;63.60
79030;DHT22;68511;51.146;7.012;2023-11-21T05:02:28;15.30;63.50
79030;DHT22;68511;51.146;7.012;2023-11-21T05:03:29;15.20;63.40
79030;DHT22;68511;51.146;7.012;2023-11-21T05:04:30;15.30;63.50
79030;DHT22;68511;51.146;7.012;2023-11-21T05:05:30;15.30;63.50
79030;DHT22;68511;51.146;7.012;2023-11-21T05:06:31;15.30;63.50
79030;DHT22;68511;51.146;7.012;2023-11-21T05:07:32;15.30;63.50
79030;DHT22;68511;51.146;7.012;2023-11-21T05:08:32;15.30;63.60
79030;DHT22;68511;51.146;7.012;2023-11-21T05:09:33;15.30;63.60
79030;DHT22;68511;51.146;7.012;2023-11-21T05:10:34;15.30;63.60
79030;DHT22;68511;51.146;7.012;2023-11-21T05:11:38;15.30;63.60
79030;DHT22;68511;51.146;7.012;2023-11-21T05:12:39;15.30;63.60
79030;DHT22;68511;51.146;7.012;2023-11-21T05:13:40;15.30;63.60
79030;DHT22;68511;51.146;7.012;2023-11-21T05:14:40;15.30;63.60
79030;DHT22;68511;51.146;7.012;2023-11-21T05:15:42;15.30;63.60
79030;DHT22;68511;51.146;7.012;2023-11-21T05:16:42;15.30;63.50
79030;DHT22;68511;51.146;7.012;2023-11-21T05:17:45;15.30;63.50
79030;DHT22;68511;51.146;7.012;2023-11-21T05:18:47;15.30;63.50
79030;DHT22;68511;51.146;7.012;2023-11-21T05:19:47;15.30;63.60
79030;DHT22;68511;51.146;7.012;2023-11-21T05:20:48;15.30;63.50
79030;DHT22;68511;51.146;7.012;2023-11-21T05:21:49;15.30;63.50
79030;DHT22;68511;51.146;7.012;2023-11-21T05:22:49;15.30;63.50
79030;DHT22;68511;51.146;7.012;2023-11-21T05:23:50;15.30;63.50
79030;DHT22;68511;51.146;7.012;2023-11-21T05:24:51;15.30;63.50
79030;DHT22;68511;51.146;7.012;2023-11-21T05:25:51;15.40;63.60
79030;DHT22;68511;51.146;7.012;2023-11-21T05:26:52;15.40;63.60
79030;DHT22;68511;51.146;7.012;2023-11-21T05:27:53;15.40;63.60
79030;DHT22;68511;51.146;7.012;2023-11-21T05:28:54;15.40;63.60
79030;DHT22;68511;51.146;7.012;2023-11-21T05:29:55;15.40;63.60
79030;DHT22;68511;51.146;7.012;2023-11-21T05:30:55;15.40;63.60
79030;DHT22;68511;51.146;7.012;2023-11-21T05:31:56;15.40;63.50
79030;DHT22;68511;51.146;7.012;2023-11-21T05:32:56;15.40;63.50
79030;DHT22;68511;51.146;7.012;2023-11-21T05:33:57;15.40;63.50
79030;DHT22;68511;51.146;7.012;2023-11-21T05:34:57;15.40;63.60
79030;DHT22;68511;51.146;7.012;2023-11-21T05:35:58;15.40;63.50
79030;DHT22;68511;51.146;7.012;2023-11-21T05:36:59;15.40;63.50
79030;DHT22;68511;51.146;7.012;2023-11-21T05:37:59;15.40;63.60
79030;DHT22;68511;51.146;7.012;2023-11-21T05:39:00;15.40;63.50
79030;DHT22;68511;51.146;7.012;2023-11-21T05:40:00;15.40;63.60
79030;DHT22;68511;51.146;7.012;2023-11-21T05:41:05;15.40;63.60
79030;DHT22;68511;51.146;7.012;2023-11-21T05:42:06;15.40;64.30
79030;DHT22;68511;51.146;7.012;2023-11-21T05:43:09;15.40;63.50
79030;DHT22;68511;51.146;7.012;2023-11-21T05:44:09;15.40;63.50
79030;DHT22;68511;51.146;7.012;2023-11-21T05:45:10;15.40;63.50
79030;DHT22;68511;51.146;7.012;2023-11-21T05:46:11;15.40;63.50
79030;DHT22;68511;51.146;7.012;2023-11-21T05:47:11;15.40;63.50
79030;DHT22;68511;51.146;7.012;2023-11-21T05:48:13;15.40;63.50
79030;DHT22;68511;51.146;7.012;2023-11-21T05:49:14;15.40;63.50
79030;DHT22;68511;51.146;7.012;2023-11-21T05:50:16;15.40;63.50
79030;DHT22;68511;51.146;7.012;2023-11-21T05:51:17;15.40;63.50
79030;DHT22;68511;51.146;7.012;2023-11-21T05:52:19;15.40;63.50
79030;DHT22;68511;51.146;7.012;2023-11-21T05:53:20;15.40;63.40
79030;DHT22;68511;51.146;7.012;2023-11-21T05:54:22;15.40;64.20
79030;DHT22;68511;51.146;7.012;2023-11-21T05:55:24;15.40;63.40
79030;DHT22;68511;51.146;7.012;2023-11-21T05:56:25;15.40;63.40
79030;DHT22;68511;51.146;7.012;2023-11-21T05:57:26;15.40;63.40
79030;DHT22;68511;51.146;7.012;2023-11-21T05:58:26;15.40;63.40
79030;DHT22;68511;51.146;7.012;2023-11-21T05:59:27;15.40;63.40
79030;DHT22;68511;51.146;7.012;2023-11-21T06:00:28;15.40;63.40
79030;DHT22;68511;51.146;7.012;2023-11-21T06:01:28;15.40;63.30
79030;DHT22;68511;51.146;7.012;2023-11-21T06:02:28;15.40;63.30
79030;DHT22;68511;51.146;7.012;2023-11-21T06:03:29;15.40;63.30
79030;DHT22;68511;51.146;7.012;2023-11-21T06:04:32;15.40;63.30
79030;DHT22;68511;51.146;7.012;2023-11-21T06:05:33;15.40;63.30
79030;DHT22;68511;51.146;7.012;2023-11-21T06:06:33;15.40;63.30
79030;DHT22;68511;51.146;7.012;2023-11-21T06:07:34;15.40;63.30
79030;DHT22;68511;51.146;7.012;2023-11-21T06:08:35;15.40;63.30
79030;DHT22;68511;51.146;7.012;2023-11-21T06:09:36;15.40;63.20
79030;DHT22;68511;51.146;7.012;2023-11-21T06:10:37;15.40;63.20
79030;DHT22;68511;51.146;7.012;2023-11-21T06:11:38;15.40;63.20
79030;DHT22;68511;51.146;7.012;2023-11-21T06:12:38;15.40;63.20
79030;DHT22;68511;51.146;7.012;2023-11-21T06:13:40;15.40;63.20
79030;DHT22;68511;51.146;7.012;2023-11-21T06:14:40;15.40;63.20
79030;DHT22;68511;51.146;7.012;2023-11-21T06:15:41;15.40;63.20
79030;DHT22;68511;51.146;7.012;2023-11-21T06:16:42;15.40;63.20
79030;DHT22;68511;51.146;7.012;2023-11-21T06:17:42;15.40;63.20
79030;DHT22;68511;51.146;7.012;2023-11-21T06:18:47;15.40;63.20
79030;DHT22;68511;51.146;7.012;2023-11-21T06:19:48;15.40;63.10
79030;DHT22;68511;51.146;7.012;2023-11-21T06:20:48;15.40;63.10
79030;DHT22;68511;51.146;7.012;2023-11-21T06:21:49;15.40;63.10
79030;DHT22;68511;51.146;7.012;2023-11-21T06:22:49;15.40;63.10
79030;DHT22;68511;51.146;7.012;2023-11-21T06:23:54;15.40;63.10